sensor_id;sensor_type;location;lat;lon;timestamp;P1;durP1;ratioP1;P2;durP2;ratioP2
12429;SDS011;6279;42.192;24.326;2022-08-19T00:00:27;5.43;;;4.03;;
12429;SDS011;6279;42.192;24.326;2022-08-19T00:02:52;5.00;;;4.23;;
12429;SDS011;6279;42.192;24.326;2022-08-19T00:05:18;4.33;;;3.90;;
12429;SDS011;6279;42.192;24.326;2022-08-19T00:07:45;5.50;;;4.10;;
12429;SDS011;6279;42.192;24.326;2022-08-19T00:10:12;4.23;;;3.83;;
12429;SDS011;6279;42.192;24.326;2022-08-19T00:12:39;5.80;;;4.30;;
12429;SDS011;6279;42.192;24.326;2022-08-19T00:15:06;4.70;;;4.30;;
12429;SDS011;6279;42.192;24.326;2022-08-19T00:17:36;5.70;;;4.10;;
12429;SDS011;6279;42.192;24.326;2022-08-19T00:20:06;4.33;;;3.90;;
12429;SDS011;6279;42.192;24.326;2022-08-19T00:22:32;4.63;;;4.00;;
12429;SDS011;6279;42.192;24.326;2022-08-19T00:24:58;4.53;;;4.13;;
12429;SDS011;6279;42.192;24.326;2022-08-19T00:27:23;4.83;;;4.03;;
12429;SDS011;6279;42.192;24.326;2022-08-19T00:29:49;5.03;;;4.10;;
12429;SDS011;6279;42.192;24.326;2022-08-19T00:32:14;7.40;;;4.03;;
12429;SDS011;6279;42.192;24.326;2022-08-19T00:34:40;5.30;;;3.63;;
12429;SDS011;6279;42.192;24.326;2022-08-19T00:37:05;5.10;;;3.93;;
12429;SDS011;6279;42.192;24.326;2022-08-19T00:39:31;4.20;;;3.80;;
12429;SDS011;6279;42.192;24.326;2022-08-19T00:41:56;7.43;;;4.17;;
12429;SDS011;6279;42.192;24.326;2022-08-19T00:44:26;7.23;;;4.33;;
12429;SDS011;6279;42.192;24.326;2022-08-19T00:46:53;4.30;;;3.90;;
12429;SDS011;6279;42.192;24.326;2022-08-19T00:49:23;4.37;;;3.93;;
12429;SDS011;6279;42.192;24.326;2022-08-19T00:51:54;4.97;;;4.30;;
12429;SDS011;6279;42.192;24.326;2022-08-19T00:54:22;5.73;;;4.17;;
12429;SDS011;6279;42.192;24.326;2022-08-19T00:56:48;5.77;;;4.20;;
12429;SDS011;6279;42.192;24.326;2022-08-19T00:59:15;4.30;;;3.90;;
12429;SDS011;6279;42.192;24.326;2022-08-19T01:01:43;4.97;;;4.47;;
12429;SDS011;6279;42.192;24.326;2022-08-19T01:04:10;7.27;;;4.20;;
12429;SDS011;6279;42.192;24.326;2022-08-19T01:06:36;6.07;;;4.20;;
12429;SDS011;6279;42.192;24.326;2022-08-19T01:09:02;5.17;;;4.30;;
12429;SDS011;6279;42.192;24.326;2022-08-19T01:11:28;4.97;;;4.43;;
12429;SDS011;6279;42.192;24.326;2022-08-19T01:13:57;6.33;;;4.47;;
12429;SDS011;6279;42.192;24.326;2022-08-19T01:16:24;4.40;;;3.90;;
12429;SDS011;6279;42.192;24.326;2022-08-19T01:18:51;5.17;;;4.30;;
12429;SDS011;6279;42.192;24.326;2022-08-19T01:24:11;5.83;;;4.60;;
12429;SDS011;6279;42.192;24.326;2022-08-19T01:26:41;6.60;;;4.30;;
12429;SDS011;6279;42.192;24.326;2022-08-19T01:29:08;5.40;;;4.40;;
12429;SDS011;6279;42.192;24.326;2022-08-19T01:31:34;4.57;;;4.00;;
12429;SDS011;6279;42.192;24.326;2022-08-19T01:34:01;4.70;;;4.30;;
12429;SDS011;6279;42.192;24.326;2022-08-19T01:36:29;5.87;;;4.33;;
12429;SDS011;6279;42.192;24.326;2022-08-19T01:39:02;4.47;;;4.03;;
12429;SDS011;6279;42.192;24.326;2022-08-19T01:41:29;5.20;;;4.27;;
12429;SDS011;6279;42.192;24.326;2022-08-19T01:43:55;6.00;;;4.23;;
12429;SDS011;6279;42.192;24.326;2022-08-19T01:46:21;4.87;;;4.20;;
12429;SDS011;6279;42.192;24.326;2022-08-19T01:48:46;5.47;;;4.33;;
12429;SDS011;6279;42.192;24.326;2022-08-19T01:51:12;4.60;;;4.20;;
12429;SDS011;6279;42.192;24.326;2022-08-19T01:53:38;4.23;;;3.83;;
12429;SDS011;6279;42.192;24.326;2022-08-19T01:56:05;5.37;;;4.37;;
12429;SDS011;6279;42.192;24.326;2022-08-19T01:58:36;5.00;;;4.40;;
12429;SDS011;6279;42.192;24.326;2022-08-19T02:01:05;5.93;;;4.50;;
12429;SDS011;6279;42.192;24.326;2022-08-19T02:03:32;7.10;;;4.17;;
12429;SDS011;6279;42.192;24.326;2022-08-19T02:05:58;5.60;;;4.07;;
12429;SDS011;6279;42.192;24.326;2022-08-19T02:08:25;6.40;;;4.20;;
12429;SDS011;6279;42.192;24.326;2022-08-19T02:10:51;4.40;;;4.00;;
12429;SDS011;6279;42.192;24.326;2022-08-19T02:13:17;5.43;;;4.50;;
12429;SDS011;6279;42.192;24.326;2022-08-19T02:15:43;5.17;;;4.30;;
12429;SDS011;6279;42.192;24.326;2022-08-19T02:18:08;5.20;;;4.37;;
12429;SDS011;6279;42.192;24.326;2022-08-19T02:20:34;4.83;;;4.40;;
12429;SDS011;6279;42.192;24.326;2022-08-19T02:23:00;5.97;;;4.97;;
12429;SDS011;6279;42.192;24.326;2022-08-19T02:25:26;6.93;;;4.50;;
12429;SDS011;6279;42.192;24.326;2022-08-19T02:27:52;8.60;;;5.70;;
12429;SDS011;6279;42.192;24.326;2022-08-19T02:30:19;5.60;;;4.50;;
12429;SDS011;6279;42.192;24.326;2022-08-19T02:32:44;5.00;;;4.60;;
12429;SDS011;6279;42.192;24.326;2022-08-19T02:35:10;5.40;;;4.70;;
12429;SDS011;6279;42.192;24.326;2022-08-19T02:37:37;6.73;;;4.60;;
12429;SDS011;6279;42.192;24.326;2022-08-19T02:40:21;6.43;;;4.50;;
12429;SDS011;6279;42.192;24.326;2022-08-19T02:42:46;5.73;;;4.57;;
12429;SDS011;6279;42.192;24.326;2022-08-19T02:45:12;7.27;;;4.27;;
12429;SDS011;6279;42.192;24.326;2022-08-19T02:47:39;5.47;;;4.43;;
12429;SDS011;6279;42.192;24.326;2022-08-19T02:50:05;6.63;;;5.00;;
12429;SDS011;6279;42.192;24.326;2022-08-19T02:52:32;7.03;;;5.17;;
12429;SDS011;6279;42.192;24.326;2022-08-19T02:54:58;7.80;;;5.27;;
12429;SDS011;6279;42.192;24.326;2022-08-19T02:57:25;5.90;;;4.87;;
12429;SDS011;6279;42.192;24.326;2022-08-19T02:59:51;7.37;;;5.00;;
12429;SDS011;6279;42.192;24.326;2022-08-19T03:02:17;7.57;;;4.77;;
12429;SDS011;6279;42.192;24.326;2022-08-19T03:04:42;5.80;;;5.20;;
12429;SDS011;6279;42.192;24.326;2022-08-19T03:07:08;5.93;;;4.50;;
12429;SDS011;6279;42.192;24.326;2022-08-19T03:09:36;7.07;;;5.30;;
12429;SDS011;6279;42.192;24.326;2022-08-19T03:12:02;6.87;;;5.50;;
12429;SDS011;6279;42.192;24.326;2022-08-19T03:14:32;7.00;;;5.60;;
12429;SDS011;6279;42.192;24.326;2022-08-19T03:16:58;7.30;;;5.77;;
12429;SDS011;6279;42.192;24.326;2022-08-19T03:19:24;10.13;;;5.33;;
12429;SDS011;6279;42.192;24.326;2022-08-19T03:21:50;6.10;;;5.50;;
12429;SDS011;6279;42.192;24.326;2022-08-19T03:24:17;9.23;;;5.97;;
12429;SDS011;6279;42.192;24.326;2022-08-19T03:26:48;5.83;;;4.93;;
12429;SDS011;6279;42.192;24.326;2022-08-19T03:29:16;10.63;;;5.27;;
12429;SDS011;6279;42.192;24.326;2022-08-19T03:31:43;7.23;;;4.60;;
12429;SDS011;6279;42.192;24.326;2022-08-19T03:34:19;5.93;;;5.07;;
12429;SDS011;6279;42.192;24.326;2022-08-19T03:36:47;8.80;;;5.30;;
12429;SDS011;6279;42.192;24.326;2022-08-19T03:39:13;6.70;;;5.27;;
12429;SDS011;6279;42.192;24.326;2022-08-19T03:41:40;6.77;;;5.17;;
12429;SDS011;6279;42.192;24.326;2022-08-19T03:44:07;5.80;;;5.10;;
12429;SDS011;6279;42.192;24.326;2022-08-19T03:46:34;5.30;;;4.80;;
12429;SDS011;6279;42.192;24.326;2022-08-19T03:49:02;10.37;;;5.73;;
12429;SDS011;6279;42.192;24.326;2022-08-19T03:51:34;5.83;;;5.20;;
12429;SDS011;6279;42.192;24.326;2022-08-19T03:54:02;7.30;;;5.23;;
12429;SDS011;6279;42.192;24.326;2022-08-19T03:56:30;6.43;;;5.43;;
12429;SDS011;6279;42.192;24.326;2022-08-19T03:58:57;11.17;;;5.83;;
12429;SDS011;6279;42.192;24.326;2022-08-19T04:01:24;8.77;;;5.80;;
12429;SDS011;6279;42.192;24.326;2022-08-19T04:03:52;7.30;;;5.53;;
12429;SDS011;6279;42.192;24.326;2022-08-19T04:06:19;7.13;;;5.37;;
12429;SDS011;6279;42.192;24.326;2022-08-19T04:08:47;11.03;;;6.03;;
12429;SDS011;6279;42.192;24.326;2022-08-19T04:11:17;9.83;;;6.30;;
12429;SDS011;6279;42.192;24.326;2022-08-19T04:13:46;8.00;;;6.27;;
12429;SDS011;6279;42.192;24.326;2022-08-19T04:16:13;8.90;;;5.73;;
12429;SDS011;6279;42.192;24.326;2022-08-19T04:18:39;9.80;;;5.60;;
12429;SDS011;6279;42.192;24.326;2022-08-19T04:21:06;9.80;;;5.67;;
12429;SDS011;6279;42.192;24.326;2022-08-19T04:23:33;10.20;;;5.83;;
12429;SDS011;6279;42.192;24.326;2022-08-19T04:26:01;10.20;;;6.03;;
12429;SDS011;6279;42.192;24.326;2022-08-19T04:28:27;8.63;;;6.37;;
12429;SDS011;6279;42.192;24.326;2022-08-19T04:30:54;10.50;;;6.00;;
12429;SDS011;6279;42.192;24.326;2022-08-19T04:33:22;14.47;;;6.60;;
12429;SDS011;6279;42.192;24.326;2022-08-19T04:35:50;13.40;;;6.60;;
12429;SDS011;6279;42.192;24.326;2022-08-19T04:38:17;19.77;;;7.37;;
12429;SDS011;6279;42.192;24.326;2022-08-19T04:40:45;15.20;;;7.80;;
12429;SDS011;6279;42.192;24.326;2022-08-19T04:43:31;13.70;;;6.77;;
12429;SDS011;6279;42.192;24.326;2022-08-19T04:45:58;14.93;;;7.03;;
12429;SDS011;6279;42.192;24.326;2022-08-19T04:48:29;11.83;;;6.47;;
12429;SDS011;6279;42.192;24.326;2022-08-19T04:50:56;9.93;;;6.30;;
12429;SDS011;6279;42.192;24.326;2022-08-19T04:53:29;13.97;;;7.07;;
12429;SDS011;6279;42.192;24.326;2022-08-19T04:55:56;10.73;;;6.50;;
12429;SDS011;6279;42.192;24.326;2022-08-19T04:58:26;8.80;;;6.60;;
12429;SDS011;6279;42.192;24.326;2022-08-19T05:00:53;11.80;;;6.00;;
12429;SDS011;6279;42.192;24.326;2022-08-19T05:03:19;7.93;;;5.23;;
12429;SDS011;6279;42.192;24.326;2022-08-19T05:05:46;8.43;;;5.90;;
12429;SDS011;6279;42.192;24.326;2022-08-19T05:08:16;7.23;;;5.60;;
12429;SDS011;6279;42.192;24.326;2022-08-19T05:10:47;8.95;;;5.32;;
12429;SDS011;6279;42.192;24.326;2022-08-19T05:13:14;11.68;;;5.60;;
12429;SDS011;6279;42.192;24.326;2022-08-19T05:15:41;13.70;;;5.53;;
12429;SDS011;6279;42.192;24.326;2022-08-19T05:18:07;7.45;;;4.93;;
12429;SDS011;6279;42.192;24.326;2022-08-19T05:20:51;6.95;;;5.20;;
12429;SDS011;6279;42.192;24.326;2022-08-19T05:23:35;8.57;;;5.07;;
12429;SDS011;6279;42.192;24.326;2022-08-19T05:26:00;8.73;;;4.90;;
12429;SDS011;6279;42.192;24.326;2022-08-19T05:28:26;8.35;;;5.15;;
12429;SDS011;6279;42.192;24.326;2022-08-19T05:30:52;6.53;;;4.43;;
12429;SDS011;6279;42.192;24.326;2022-08-19T05:33:20;5.35;;;4.47;;
12429;SDS011;6279;42.192;24.326;2022-08-19T05:35:46;7.22;;;4.68;;
12429;SDS011;6279;42.192;24.326;2022-08-19T05:38:14;6.45;;;4.78;;
12429;SDS011;6279;42.192;24.326;2022-08-19T05:40:41;7.55;;;5.00;;
12429;SDS011;6279;42.192;24.326;2022-08-19T05:43:08;10.32;;;5.00;;
12429;SDS011;6279;42.192;24.326;2022-08-19T05:45:37;5.53;;;5.03;;
12429;SDS011;6279;42.192;24.326;2022-08-19T05:48:04;9.27;;;5.32;;
12429;SDS011;6279;42.192;24.326;2022-08-19T05:50:30;11.40;;;5.40;;
12429;SDS011;6279;42.192;24.326;2022-08-19T05:52:55;7.65;;;4.88;;
12429;SDS011;6279;42.192;24.326;2022-08-19T05:55:20;14.52;;;5.20;;
12429;SDS011;6279;42.192;24.326;2022-08-19T05:57:47;8.13;;;4.97;;
12429;SDS011;6279;42.192;24.326;2022-08-19T06:00:13;4.95;;;4.30;;
12429;SDS011;6279;42.192;24.326;2022-08-19T06:02:39;5.47;;;4.68;;
12429;SDS011;6279;42.192;24.326;2022-08-19T06:05:05;5.60;;;4.90;;
12429;SDS011;6279;42.192;24.326;2022-08-19T06:07:33;8.98;;;5.25;;
12429;SDS011;6279;42.192;24.326;2022-08-19T06:10:07;7.50;;;4.53;;
12429;SDS011;6279;42.192;24.326;2022-08-19T06:12:34;7.03;;;5.18;;
12429;SDS011;6279;42.192;24.326;2022-08-19T06:15:02;9.02;;;4.78;;
12429;SDS011;6279;42.192;24.326;2022-08-19T06:17:35;5.57;;;4.80;;
12429;SDS011;6279;42.192;24.326;2022-08-19T06:20:05;9.57;;;4.60;;
12429;SDS011;6279;42.192;24.326;2022-08-19T06:22:37;9.85;;;5.35;;
12429;SDS011;6279;42.192;24.326;2022-08-19T06:25:03;6.28;;;5.30;;
12429;SDS011;6279;42.192;24.326;2022-08-19T06:27:29;6.50;;;5.05;;
12429;SDS011;6279;42.192;24.326;2022-08-19T06:29:56;5.03;;;4.53;;
12429;SDS011;6279;42.192;24.326;2022-08-19T06:32:22;5.10;;;4.60;;
12429;SDS011;6279;42.192;24.326;2022-08-19T06:34:47;7.88;;;4.35;;
12429;SDS011;6279;42.192;24.326;2022-08-19T06:37:12;7.10;;;4.47;;
12429;SDS011;6279;42.192;24.326;2022-08-19T06:39:39;5.10;;;4.28;;
12429;SDS011;6279;42.192;24.326;2022-08-19T06:42:06;5.47;;;4.97;;
12429;SDS011;6279;42.192;24.326;2022-08-19T06:44:35;5.93;;;4.50;;
12429;SDS011;6279;42.192;24.326;2022-08-19T06:47:03;6.53;;;4.53;;
12429;SDS011;6279;42.192;24.326;2022-08-19T06:49:29;7.95;;;4.70;;
12429;SDS011;6279;42.192;24.326;2022-08-19T06:51:56;6.20;;;4.40;;
12429;SDS011;6279;42.192;24.326;2022-08-19T06:54:22;6.32;;;4.45;;
12429;SDS011;6279;42.192;24.326;2022-08-19T06:56:48;6.13;;;4.60;;
12429;SDS011;6279;42.192;24.326;2022-08-19T06:59:15;5.18;;;4.32;;
12429;SDS011;6279;42.192;24.326;2022-08-19T07:01:44;5.53;;;4.85;;
12429;SDS011;6279;42.192;24.326;2022-08-19T07:04:12;5.03;;;4.55;;
12429;SDS011;6279;42.192;24.326;2022-08-19T07:06:40;6.03;;;4.65;;
12429;SDS011;6279;42.192;24.326;2022-08-19T07:09:07;4.97;;;4.40;;
12429;SDS011;6279;42.192;24.326;2022-08-19T07:11:36;7.25;;;4.28;;
12429;SDS011;6279;42.192;24.326;2022-08-19T07:14:02;10.55;;;4.55;;
12429;SDS011;6279;42.192;24.326;2022-08-19T07:16:28;5.38;;;4.47;;
12429;SDS011;6279;42.192;24.326;2022-08-19T07:18:54;4.50;;;4.10;;
12429;SDS011;6279;42.192;24.326;2022-08-19T07:21:23;10.25;;;4.60;;
12429;SDS011;6279;42.192;24.326;2022-08-19T07:23:53;5.75;;;4.43;;
12429;SDS011;6279;42.192;24.326;2022-08-19T07:26:25;5.60;;;4.68;;
12429;SDS011;6279;42.192;24.326;2022-08-19T07:28:53;12.57;;;4.90;;
12429;SDS011;6279;42.192;24.326;2022-08-19T07:31:20;4.65;;;4.25;;
12429;SDS011;6279;42.192;24.326;2022-08-19T07:33:48;5.20;;;4.43;;
12429;SDS011;6279;42.192;24.326;2022-08-19T07:36:15;4.35;;;3.95;;
12429;SDS011;6279;42.192;24.326;2022-08-19T07:38:43;5.32;;;4.25;;
12429;SDS011;6279;42.192;24.326;2022-08-19T07:41:12;7.40;;;4.20;;
12429;SDS011;6279;42.192;24.326;2022-08-19T07:43:45;4.75;;;4.00;;
12429;SDS011;6279;42.192;24.326;2022-08-19T07:46:11;5.25;;;4.40;;
12429;SDS011;6279;42.192;24.326;2022-08-19T07:48:38;5.85;;;3.95;;
12429;SDS011;6279;42.192;24.326;2022-08-19T07:51:06;4.60;;;3.90;;
12429;SDS011;6279;42.192;24.326;2022-08-19T07:53:33;5.43;;;3.80;;
12429;SDS011;6279;42.192;24.326;2022-08-19T07:55:59;5.13;;;3.72;;
12429;SDS011;6279;42.192;24.326;2022-08-19T07:58:29;5.07;;;3.47;;
12429;SDS011;6279;42.192;24.326;2022-08-19T08:00:57;4.28;;;3.58;;
12429;SDS011;6279;42.192;24.326;2022-08-19T08:03:23;5.80;;;3.63;;
12429;SDS011;6279;42.192;24.326;2022-08-19T08:06:10;4.20;;;3.75;;
12429;SDS011;6279;42.192;24.326;2022-08-19T08:08:55;5.00;;;3.30;;
12429;SDS011;6279;42.192;24.326;2022-08-19T08:11:40;5.80;;;3.70;;
12429;SDS011;6279;42.192;24.326;2022-08-19T08:14:17;9.43;;;3.83;;
12429;SDS011;6279;42.192;24.326;2022-08-19T08:16:47;4.90;;;3.30;;
12429;SDS011;6279;42.192;24.326;2022-08-19T08:19:16;5.78;;;3.50;;
12429;SDS011;6279;42.192;24.326;2022-08-19T08:21:44;6.38;;;3.60;;
12429;SDS011;6279;42.192;24.326;2022-08-19T08:24:10;5.57;;;3.60;;
12429;SDS011;6279;42.192;24.326;2022-08-19T08:26:37;4.65;;;3.15;;
12429;SDS011;6279;42.192;24.326;2022-08-19T08:29:03;6.10;;;3.47;;
12429;SDS011;6279;42.192;24.326;2022-08-19T08:31:28;3.58;;;2.92;;
12429;SDS011;6279;42.192;24.326;2022-08-19T08:33:54;3.70;;;2.95;;
12429;SDS011;6279;42.192;24.326;2022-08-19T08:36:20;4.38;;;2.90;;
12429;SDS011;6279;42.192;24.326;2022-08-19T08:38:45;6.78;;;3.03;;
12429;SDS011;6279;42.192;24.326;2022-08-19T08:41:22;3.00;;;2.80;;
12429;SDS011;6279;42.192;24.326;2022-08-19T08:44:06;4.82;;;3.00;;
12429;SDS011;6279;42.192;24.326;2022-08-19T08:51:38;3.22;;;2.92;;
12429;SDS011;6279;42.192;24.326;2022-08-19T08:54:08;6.28;;;2.55;;
12429;SDS011;6279;42.192;24.326;2022-08-19T08:56:43;3.85;;;2.58;;
12429;SDS011;6279;42.192;24.326;2022-08-19T08:59:12;3.45;;;2.78;;
12429;SDS011;6279;42.192;24.326;2022-08-19T09:01:52;3.50;;;2.40;;
12429;SDS011;6279;42.192;24.326;2022-08-19T09:04:18;2.78;;;2.50;;
12429;SDS011;6279;42.192;24.326;2022-08-19T09:07:02;2.78;;;2.58;;
12429;SDS011;6279;42.192;24.326;2022-08-19T09:09:46;3.58;;;2.67;;
12429;SDS011;6279;42.192;24.326;2022-08-19T09:15:06;3.00;;;2.80;;
12429;SDS011;6279;42.192;24.326;2022-08-19T09:17:34;3.08;;;2.88;;
12429;SDS011;6279;42.192;24.326;2022-08-19T09:20:06;3.88;;;2.80;;
12429;SDS011;6279;42.192;24.326;2022-08-19T09:22:36;4.05;;;2.50;;
12429;SDS011;6279;42.192;24.326;2022-08-19T09:25:03;3.28;;;2.60;;
12429;SDS011;6279;42.192;24.326;2022-08-19T09:27:30;3.00;;;2.75;;
12429;SDS011;6279;42.192;24.326;2022-08-19T09:29:57;3.83;;;2.50;;
12429;SDS011;6279;42.192;24.326;2022-08-19T09:32:23;3.35;;;2.20;;
12429;SDS011;6279;42.192;24.326;2022-08-19T09:34:51;4.10;;;2.78;;
12429;SDS011;6279;42.192;24.326;2022-08-19T09:37:20;2.88;;;2.65;;
12429;SDS011;6279;42.192;24.326;2022-08-19T09:39:46;2.50;;;2.30;;
12429;SDS011;6279;42.192;24.326;2022-08-19T09:42:11;2.55;;;2.35;;
12429;SDS011;6279;42.192;24.326;2022-08-19T09:44:41;2.72;;;2.30;;
12429;SDS011;6279;42.192;24.326;2022-08-19T09:47:11;2.90;;;2.58;;
12429;SDS011;6279;42.192;24.326;2022-08-19T09:49:37;2.80;;;2.58;;
12429;SDS011;6279;42.192;24.326;2022-08-19T09:52:04;3.47;;;2.60;;
12429;SDS011;6279;42.192;24.326;2022-08-19T09:54:32;3.38;;;2.63;;
12429;SDS011;6279;42.192;24.326;2022-08-19T09:56:57;4.03;;;3.00;;
12429;SDS011;6279;42.192;24.326;2022-08-19T09:59:25;4.10;;;3.00;;
12429;SDS011;6279;42.192;24.326;2022-08-19T10:01:51;4.55;;;2.80;;
12429;SDS011;6279;42.192;24.326;2022-08-19T10:04:16;2.83;;;2.53;;
12429;SDS011;6279;42.192;24.326;2022-08-19T10:06:42;2.60;;;2.40;;
12429;SDS011;6279;42.192;24.326;2022-08-19T10:09:08;2.58;;;2.38;;
12429;SDS011;6279;42.192;24.326;2022-08-19T10:11:36;2.55;;;2.30;;
12429;SDS011;6279;42.192;24.326;2022-08-19T10:14:04;3.60;;;2.80;;
12429;SDS011;6279;42.192;24.326;2022-08-19T10:16:33;3.63;;;3.00;;
12429;SDS011;6279;42.192;24.326;2022-08-19T10:19:00;2.80;;;2.60;;
12429;SDS011;6279;42.192;24.326;2022-08-19T10:21:28;2.47;;;2.28;;
12429;SDS011;6279;42.192;24.326;2022-08-19T10:23:56;3.55;;;2.40;;
12429;SDS011;6279;42.192;24.326;2022-08-19T10:26:28;5.50;;;2.65;;
12429;SDS011;6279;42.192;24.326;2022-08-19T10:28:55;4.75;;;3.15;;
12429;SDS011;6279;42.192;24.326;2022-08-19T10:31:25;2.95;;;2.75;;
12429;SDS011;6279;42.192;24.326;2022-08-19T10:33:52;3.20;;;2.75;;
12429;SDS011;6279;42.192;24.326;2022-08-19T10:36:22;3.55;;;2.83;;
12429;SDS011;6279;42.192;24.326;2022-08-19T10:38:50;3.88;;;2.83;;
12429;SDS011;6279;42.192;24.326;2022-08-19T10:41:19;2.97;;;2.67;;
12429;SDS011;6279;42.192;24.326;2022-08-19T10:43:50;2.95;;;2.67;;
12429;SDS011;6279;42.192;24.326;2022-08-19T10:46:19;4.00;;;2.70;;
12429;SDS011;6279;42.192;24.326;2022-08-19T10:48:46;2.47;;;2.25;;
12429;SDS011;6279;42.192;24.326;2022-08-19T10:51:12;3.58;;;2.70;;
12429;SDS011;6279;42.192;24.326;2022-08-19T10:53:56;2.88;;;2.45;;
12429;SDS011;6279;42.192;24.326;2022-08-19T10:56:23;2.85;;;2.55;;
12429;SDS011;6279;42.192;24.326;2022-08-19T10:59:07;3.17;;;2.47;;
12429;SDS011;6279;42.192;24.326;2022-08-19T11:01:33;3.88;;;2.70;;
12429;SDS011;6279;42.192;24.326;2022-08-19T11:04:00;3.15;;;2.85;;
12429;SDS011;6279;42.192;24.326;2022-08-19T11:06:26;2.78;;;2.55;;
12429;SDS011;6279;42.192;24.326;2022-08-19T11:08:55;3.03;;;2.70;;
12429;SDS011;6279;42.192;24.326;2022-08-19T11:11:21;4.32;;;2.60;;
12429;SDS011;6279;42.192;24.326;2022-08-19T11:13:47;3.58;;;2.95;;
12429;SDS011;6279;42.192;24.326;2022-08-19T11:16:15;3.45;;;2.88;;
12429;SDS011;6279;42.192;24.326;2022-08-19T11:18:44;5.80;;;2.95;;
12429;SDS011;6279;42.192;24.326;2022-08-19T11:21:13;3.67;;;2.53;;
12429;SDS011;6279;42.192;24.326;2022-08-19T11:23:40;6.50;;;3.40;;
12429;SDS011;6279;42.192;24.326;2022-08-19T11:26:06;5.68;;;3.10;;
12429;SDS011;6279;42.192;24.326;2022-08-19T11:28:31;3.22;;;2.92;;
12429;SDS011;6279;42.192;24.326;2022-08-19T11:30:57;4.60;;;2.95;;
12429;SDS011;6279;42.192;24.326;2022-08-19T11:33:22;5.40;;;3.00;;
12429;SDS011;6279;42.192;24.326;2022-08-19T11:35:48;3.25;;;2.92;;
12429;SDS011;6279;42.192;24.326;2022-08-19T11:38:14;3.55;;;3.17;;
12429;SDS011;6279;42.192;24.326;2022-08-19T11:40:39;4.25;;;3.28;;
12429;SDS011;6279;42.192;24.326;2022-08-19T11:43:07;3.67;;;2.95;;
12429;SDS011;6279;42.192;24.326;2022-08-19T11:45:34;3.85;;;2.90;;
12429;SDS011;6279;42.192;24.326;2022-08-19T11:48:00;9.20;;;3.30;;
12429;SDS011;6279;42.192;24.326;2022-08-19T11:50:27;5.20;;;3.53;;
12429;SDS011;6279;42.192;24.326;2022-08-19T11:52:56;3.75;;;3.30;;
12429;SDS011;6279;42.192;24.326;2022-08-19T11:55:22;4.90;;;3.50;;
12429;SDS011;6279;42.192;24.326;2022-08-19T11:57:48;7.78;;;3.50;;
12429;SDS011;6279;42.192;24.326;2022-08-19T12:00:14;5.57;;;3.28;;
12429;SDS011;6279;42.192;24.326;2022-08-19T12:02:40;3.80;;;3.50;;
12429;SDS011;6279;42.192;24.326;2022-08-19T12:05:05;4.85;;;3.67;;
12429;SDS011;6279;42.192;24.326;2022-08-19T12:07:33;5.45;;;3.10;;
12429;SDS011;6279;42.192;24.326;2022-08-19T12:09:59;3.20;;;3.00;;
12429;SDS011;6279;42.192;24.326;2022-08-19T12:12:25;4.57;;;2.97;;
12429;SDS011;6279;42.192;24.326;2022-08-19T12:14:52;3.50;;;3.20;;
12429;SDS011;6279;42.192;24.326;2022-08-19T12:17:25;4.10;;;3.70;;
12429;SDS011;6279;42.192;24.326;2022-08-19T12:19:51;3.67;;;3.25;;
12429;SDS011;6279;42.192;24.326;2022-08-19T12:22:17;3.40;;;3.10;;
12429;SDS011;6279;42.192;24.326;2022-08-19T12:24:43;3.83;;;3.50;;
12429;SDS011;6279;42.192;24.326;2022-08-19T12:27:08;5.07;;;3.35;;
12429;SDS011;6279;42.192;24.326;2022-08-19T12:29:34;5.28;;;3.40;;
12429;SDS011;6279;42.192;24.326;2022-08-19T12:31:59;3.80;;;3.35;;
12429;SDS011;6279;42.192;24.326;2022-08-19T12:34:28;4.45;;;3.00;;
12429;SDS011;6279;42.192;24.326;2022-08-19T12:36:56;3.47;;;3.17;;
12429;SDS011;6279;42.192;24.326;2022-08-19T12:39:22;4.78;;;3.00;;
12429;SDS011;6279;42.192;24.326;2022-08-19T12:41:47;5.05;;;3.40;;
12429;SDS011;6279;42.192;24.326;2022-08-19T12:44:14;3.63;;;3.25;;
12429;SDS011;6279;42.192;24.326;2022-08-19T12:46:39;3.35;;;3.00;;
12429;SDS011;6279;42.192;24.326;2022-08-19T12:49:05;3.83;;;3.22;;
12429;SDS011;6279;42.192;24.326;2022-08-19T12:51:30;3.95;;;3.28;;
12429;SDS011;6279;42.192;24.326;2022-08-19T12:53:56;6.43;;;3.45;;
12429;SDS011;6279;42.192;24.326;2022-08-19T12:56:22;3.75;;;3.35;;
12429;SDS011;6279;42.192;24.326;2022-08-19T12:58:47;3.60;;;3.08;;
12429;SDS011;6279;42.192;24.326;2022-08-19T13:01:13;3.40;;;3.10;;
12429;SDS011;6279;42.192;24.326;2022-08-19T13:03:41;4.70;;;3.30;;
12429;SDS011;6279;42.192;24.326;2022-08-19T13:06:07;4.57;;;3.30;;
12429;SDS011;6279;42.192;24.326;2022-08-19T13:08:33;5.55;;;3.45;;
12429;SDS011;6279;42.192;24.326;2022-08-19T13:11:06;6.63;;;3.75;;
12429;SDS011;6279;42.192;24.326;2022-08-19T13:13:37;3.60;;;3.30;;
12429;SDS011;6279;42.192;24.326;2022-08-19T13:16:05;5.60;;;3.00;;
12429;SDS011;6279;42.192;24.326;2022-08-19T13:18:31;6.10;;;3.40;;
12429;SDS011;6279;42.192;24.326;2022-08-19T13:20:57;3.47;;;3.17;;
12429;SDS011;6279;42.192;24.326;2022-08-19T13:23:22;4.30;;;3.88;;
12429;SDS011;6279;42.192;24.326;2022-08-19T13:26:00;3.70;;;3.40;;
12429;SDS011;6279;42.192;24.326;2022-08-19T13:28:28;4.18;;;3.70;;
12429;SDS011;6279;42.192;24.326;2022-08-19T13:31:17;5.95;;;3.35;;
12429;SDS011;6279;42.192;24.326;2022-08-19T13:34:03;5.03;;;3.45;;
12429;SDS011;6279;42.192;24.326;2022-08-19T13:36:31;5.03;;;4.00;;
12429;SDS011;6279;42.192;24.326;2022-08-19T13:38:57;4.22;;;3.42;;
12429;SDS011;6279;42.192;24.326;2022-08-19T13:41:23;4.50;;;3.20;;
12429;SDS011;6279;42.192;24.326;2022-08-19T13:43:48;4.90;;;3.50;;
12429;SDS011;6279;42.192;24.326;2022-08-19T13:46:14;4.82;;;3.55;;
12429;SDS011;6279;42.192;24.326;2022-08-19T13:48:40;5.90;;;3.67;;
12429;SDS011;6279;42.192;24.326;2022-08-19T13:51:06;4.22;;;3.33;;
12429;SDS011;6279;42.192;24.326;2022-08-19T13:53:35;4.00;;;3.33;;
12429;SDS011;6279;42.192;24.326;2022-08-19T13:56:04;3.97;;;3.60;;
12429;SDS011;6279;42.192;24.326;2022-08-19T13:58:31;4.72;;;3.40;;
12429;SDS011;6279;42.192;24.326;2022-08-19T14:00:57;5.82;;;3.60;;
12429;SDS011;6279;42.192;24.326;2022-08-19T14:03:24;6.70;;;3.60;;
12429;SDS011;6279;42.192;24.326;2022-08-19T14:05:49;7.32;;;3.90;;
12429;SDS011;6279;42.192;24.326;2022-08-19T14:08:15;4.20;;;3.65;;
12429;SDS011;6279;42.192;24.326;2022-08-19T14:10:41;4.20;;;3.65;;
12429;SDS011;6279;42.192;24.326;2022-08-19T14:13:09;4.47;;;3.70;;
12429;SDS011;6279;42.192;24.326;2022-08-19T14:15:35;5.20;;;3.85;;
12429;SDS011;6279;42.192;24.326;2022-08-19T14:18:02;4.57;;;3.53;;
12429;SDS011;6279;42.192;24.326;2022-08-19T14:20:29;4.00;;;3.60;;
12429;SDS011;6279;42.192;24.326;2022-08-19T14:22:54;4.35;;;3.53;;
12429;SDS011;6279;42.192;24.326;2022-08-19T14:25:24;7.25;;;4.20;;
12429;SDS011;6279;42.192;24.326;2022-08-19T14:27:51;5.05;;;3.97;;
12429;SDS011;6279;42.192;24.326;2022-08-19T14:30:18;3.95;;;3.63;;
12429;SDS011;6279;42.192;24.326;2022-08-19T14:32:46;5.25;;;3.72;;
12429;SDS011;6279;42.192;24.326;2022-08-19T14:35:13;4.57;;;3.83;;
12429;SDS011;6279;42.192;24.326;2022-08-19T14:37:40;5.50;;;3.90;;
12429;SDS011;6279;42.192;24.326;2022-08-19T14:40:07;8.70;;;3.95;;
12429;SDS011;6279;42.192;24.326;2022-08-19T14:42:33;4.70;;;3.90;;
12429;SDS011;6279;42.192;24.326;2022-08-19T14:45:00;4.75;;;3.88;;
12429;SDS011;6279;42.192;24.326;2022-08-19T14:47:26;6.00;;;3.92;;
12429;SDS011;6279;42.192;24.326;2022-08-19T14:49:52;6.03;;;4.22;;
12429;SDS011;6279;42.192;24.326;2022-08-19T14:52:17;5.32;;;3.95;;
12429;SDS011;6279;42.192;24.326;2022-08-19T14:54:43;3.92;;;3.63;;
12429;SDS011;6279;42.192;24.326;2022-08-19T14:57:11;5.57;;;3.92;;
12429;SDS011;6279;42.192;24.326;2022-08-19T14:59:37;4.20;;;3.80;;